createdAt,value
2023-01-03T00:01:49.024Z,11.93
2023-01-03T00:04:17.153Z,10.73
2023-01-03T00:06:49.881Z,11.93
2023-01-03T00:09:24.397Z,13.73
2023-01-03T00:12:12.535Z,11.55
2023-01-03T00:14:43.131Z,9.73
2023-01-03T00:17:11.796Z,9.98
2023-01-03T00:19:44.252Z,11.75
2023-01-03T00:22:13.196Z,10.82
2023-01-03T00:24:41.280Z,11.40
2023-01-03T00:27:08.345Z,12.07
2023-01-03T00:29:35.656Z,14.75
2023-01-03T00:32:03.207Z,13.05
2023-01-03T00:34:30.796Z,12.55
2023-01-03T00:36:57.975Z,12.55
2023-01-03T00:39:25.429Z,14.02
2023-01-03T00:41:52.413Z,15.60
2023-01-03T00:44:19.677Z,13.90
2023-01-03T00:46:46.677Z,12.68
2023-01-03T00:49:14.010Z,13.65
2023-01-03T00:51:42.148Z,14.43
2023-01-03T00:54:15.207Z,13.52
2023-01-03T00:56:44.791Z,13.23
2023-01-03T00:59:13.847Z,11.02
2023-01-03T01:01:47.493Z,10.88
2023-01-03T01:04:34.102Z,11.90
2023-01-03T01:07:04.777Z,11.73
2023-01-03T01:09:37.844Z,13.23
2023-01-03T01:12:07.456Z,13.82
2023-01-03T01:14:35.413Z,17.35
2023-01-03T01:17:06.266Z,18.08
2023-01-03T01:19:39.965Z,17.27
2023-01-03T01:22:08.037Z,16.70
2023-01-03T01:24:40.891Z,14.60
2023-01-03T01:27:08.144Z,12.55
2023-01-03T01:29:36.053Z,12.05
2023-01-03T01:32:31.071Z,12.40
2023-01-03T01:35:08.662Z,11.70
2023-01-03T01:37:36.004Z,9.68
2023-01-03T01:40:05.908Z,10.48
2023-01-03T01:42:56.346Z,12.73
2023-01-03T01:45:29.893Z,11.93
2023-01-03T01:48:10.502Z,11.57
2023-01-03T01:50:52.147Z,9.98
2023-01-03T01:53:27.735Z,9.50
2023-01-03T01:56:20.894Z,10.75
2023-01-03T01:58:50.591Z,10.57
2023-01-03T02:01:19.679Z,10.88
2023-01-03T02:03:55.506Z,11.68
2023-01-03T02:06:24.632Z,11.38
2023-01-03T02:08:51.669Z,10.40
2023-01-03T02:11:37.427Z,11.15
2023-01-03T02:14:22.614Z,11.38
2023-01-03T02:17:00.393Z,10.82
2023-01-03T02:19:30.320Z,10.82
2023-01-03T02:22:12.949Z,10.68
2023-01-03T02:25:01.236Z,11.02
2023-01-03T02:27:40.313Z,10.27
2023-01-03T02:30:43.350Z,11.60
2023-01-03T02:33:35.188Z,9.95
2023-01-03T02:36:21.144Z,10.27
2023-01-03T02:38:54.654Z,10.55
2023-01-03T02:41:40.330Z,9.07
2023-01-03T02:44:28.987Z,9.35
2023-01-03T02:47:08.699Z,10.35
2023-01-03T02:49:41.887Z,9.27
2023-01-03T02:52:13.888Z,8.38
2023-01-03T02:54:46.379Z,9.20
2023-01-03T02:57:18.473Z,8.73
2023-01-03T02:59:54.753Z,10.43
2023-01-03T03:02:26.649Z,9.15
2023-01-03T03:04:57.082Z,9.35
2023-01-03T03:07:28.699Z,9.50
2023-01-03T03:10:17.250Z,8.70
2023-01-03T03:13:05.887Z,8.93
2023-01-03T03:15:49.112Z,9.38
2023-01-03T03:18:22.278Z,10.27
2023-01-03T03:21:07.629Z,12.10
2023-01-03T03:23:57.991Z,9.95
2023-01-03T03:26:31.683Z,12.05
2023-01-03T03:29:10.861Z,11.30
2023-01-03T03:31:58.334Z,10.80
2023-01-03T03:34:30.107Z,10.07
2023-01-03T03:37:01.100Z,11.60
2023-01-03T03:39:49.742Z,10.75
2023-01-03T03:42:35.624Z,10.20
2023-01-03T03:45:23.621Z,12.98
2023-01-03T03:48:06.822Z,15.05
2023-01-03T03:50:43.388Z,14.65
2023-01-03T03:53:11.950Z,12.77
2023-01-03T03:56:03.169Z,13.30
2023-01-03T04:01:01.145Z,12.55
2023-01-03T04:03:30.760Z,12.60
2023-01-03T04:06:02.008Z,12.63
2023-01-03T04:08:32.717Z,11.05
2023-01-03T04:11:08.752Z,11.07
2023-01-03T04:13:38.047Z,11.45
2023-01-03T04:16:06.228Z,11.32
2023-01-03T04:18:33.787Z,10.85
2023-01-03T04:21:00.996Z,12.98
2023-01-03T04:23:27.973Z,12.88
2023-01-03T04:25:56.676Z,17.70
2023-01-03T04:28:23.860Z,14.15
2023-01-03T04:30:50.900Z,11.98
2023-01-03T04:33:18.687Z,11.48
2023-01-03T04:35:46.431Z,10.93
2023-01-03T04:38:13.550Z,10.70
2023-01-03T04:40:44.457Z,11.07
2023-01-03T04:43:29.996Z,9.88
2023-01-03T04:45:57.486Z,16.02
2023-01-03T04:48:24.393Z,12.10
2023-01-03T04:50:56.555Z,12.48
2023-01-03T04:53:25.364Z,18.05
2023-01-03T04:55:53.911Z,26.25
2023-01-03T04:58:21.043Z,19.08
2023-01-03T05:00:48.192Z,21.83
2023-01-03T05:03:16.944Z,14.25
2023-01-03T05:05:45.413Z,13.05
2023-01-03T05:08:13.565Z,14.13
2023-01-03T05:10:41.922Z,13.48
2023-01-03T05:13:09.314Z,13.05
2023-01-03T05:15:38.626Z,14.50
2023-01-03T05:18:30.589Z,14.48
2023-01-03T05:21:16.114Z,15.50
2023-01-03T05:24:01.688Z,16.67
2023-01-03T05:26:28.811Z,20.65
2023-01-03T05:28:56.330Z,19.25
2023-01-03T05:31:23.502Z,20.17
2023-01-03T05:33:50.619Z,18.88
2023-01-03T05:36:17.908Z,18.02
2023-01-03T05:38:44.978Z,17.45
2023-01-03T05:41:13.305Z,15.98
2023-01-03T05:43:40.620Z,20.05
2023-01-03T05:46:08.007Z,28.67
2023-01-03T05:48:35.298Z,26.73
2023-01-03T05:51:02.170Z,23.63
2023-01-03T05:53:29.525Z,26.90
2023-01-03T05:55:56.520Z,26.05
2023-01-03T05:58:23.692Z,21.10
2023-01-03T06:00:50.746Z,19.83
2023-01-03T06:03:17.970Z,18.48
2023-01-03T06:05:50.150Z,23.20
2023-01-03T06:08:18.000Z,18.10
2023-01-03T06:10:45.176Z,17.08
2023-01-03T06:13:12.640Z,17.50
2023-01-03T06:15:40.050Z,17.25
2023-01-03T06:18:07.319Z,19.05
2023-01-03T06:20:35.472Z,23.05
2023-01-03T06:23:02.612Z,20.98
2023-01-03T06:25:29.837Z,21.13
2023-01-03T06:27:57.368Z,17.55
2023-01-03T06:30:24.986Z,14.75
2023-01-03T06:32:52.093Z,16.00
2023-01-03T06:35:19.447Z,20.50
2023-01-03T06:37:46.328Z,18.58
2023-01-03T06:40:13.595Z,18.52
2023-01-03T06:42:42.412Z,21.05
2023-01-03T06:45:29.813Z,23.77
2023-01-03T06:48:15.526Z,41.58
2023-01-03T06:51:02.056Z,68.57
2023-01-03T06:53:38.336Z,81.55
2023-01-03T06:56:06.523Z,77.07
2023-01-03T06:58:36.602Z,74.20
2023-01-03T07:01:05.055Z,77.55
2023-01-03T07:03:35.562Z,64.68
2023-01-03T07:06:03.697Z,56.80
2023-01-03T07:08:30.956Z,49.72
2023-01-03T07:10:58.090Z,62.30
2023-01-03T07:13:43.381Z,60.08
2023-01-03T07:16:15.593Z,52.47
2023-01-03T07:18:45.856Z,49.03
2023-01-03T07:21:15.537Z,48.28
2023-01-03T07:23:42.626Z,51.25
2023-01-03T07:26:09.841Z,53.47
2023-01-03T07:28:36.837Z,59.22
2023-01-03T07:31:08.099Z,75.82
2023-01-03T07:36:11.793Z,79.50
2023-01-03T07:38:43.816Z,88.15
2023-01-03T07:41:12.471Z,88.45
2023-01-03T07:43:43.163Z,88.10
2023-01-03T07:46:11.770Z,72.90
2023-01-03T07:48:39.905Z,66.45
2023-01-03T07:51:08.967Z,66.30
2023-01-03T07:53:39.400Z,59.72
2023-01-03T07:56:13.462Z,54.63
2023-01-03T07:58:42.696Z,51.22
2023-01-03T08:01:18.996Z,62.10
2023-01-03T08:03:46.716Z,52.28
2023-01-03T08:06:19.492Z,52.15
2023-01-03T08:09:06.975Z,42.42
2023-01-03T08:11:53.020Z,59.00
2023-01-03T08:14:25.352Z,45.60
2023-01-03T08:16:53.518Z,47.08
2023-01-03T08:19:20.796Z,45.05
2023-01-03T08:21:49.022Z,45.80
2023-01-03T08:24:16.111Z,43.60
2023-01-03T08:26:43.415Z,41.50
2023-01-03T08:29:10.978Z,31.10
2023-01-03T08:31:44.697Z,26.42
2023-01-03T08:34:19.560Z,25.58
2023-01-03T08:36:52.242Z,28.58
2023-01-03T08:39:25.712Z,29.63
2023-01-03T08:42:02.645Z,29.58
2023-01-03T08:44:29.903Z,29.85
2023-01-03T08:46:59.530Z,28.95
2023-01-03T08:49:30.096Z,26.63
2023-01-03T08:51:57.197Z,25.70
2023-01-03T08:54:24.306Z,23.27
2023-01-03T08:56:51.303Z,23.13
2023-01-03T08:59:18.649Z,23.15
2023-01-03T09:01:45.937Z,29.67
2023-01-03T09:04:13.303Z,29.63
2023-01-03T09:06:40.815Z,30.08
2023-01-03T09:09:08.860Z,35.08
2023-01-03T09:11:36.053Z,33.40
2023-01-03T09:14:05.517Z,35.15
2023-01-03T09:16:37.289Z,25.13
2023-01-03T09:19:15.242Z,21.33
2023-01-03T09:21:42.650Z,17.80
2023-01-03T09:24:10.039Z,18.13
2023-01-03T09:26:40.669Z,18.33
2023-01-03T09:29:07.686Z,21.85
2023-01-03T09:31:35.681Z,18.02
2023-01-03T09:34:05.851Z,20.08
2023-01-03T09:36:35.027Z,16.58
2023-01-03T09:39:02.038Z,17.60
2023-01-03T09:41:29.427Z,19.58
2023-01-03T09:44:02.681Z,31.05
2023-01-03T09:46:44.692Z,26.05
2023-01-03T09:49:15.644Z,25.38
2023-01-03T09:52:04.832Z,20.88
2023-01-03T09:54:59.381Z,14.63
2023-01-03T09:57:54.928Z,17.20
2023-01-03T10:00:59.376Z,15.68
2023-01-03T10:04:05.584Z,12.25
2023-01-03T10:06:51.341Z,8.40
2023-01-03T10:09:21.310Z,4.70
2023-01-03T10:12:09.532Z,4.60
2023-01-03T10:15:00.173Z,2.88
2023-01-03T10:17:38.924Z,2.95
2023-01-03T10:20:27.988Z,2.60
2023-01-03T10:23:01.171Z,2.58
2023-01-03T10:25:29.456Z,3.30
2023-01-03T10:28:06.581Z,3.88
2023-01-03T10:30:56.708Z,3.35
2023-01-03T10:33:47.439Z,3.47
2023-01-03T10:36:21.207Z,3.10
2023-01-03T10:38:52.864Z,2.80
2023-01-03T10:41:31.014Z,2.38
2023-01-03T10:44:04.216Z,3.00
2023-01-03T10:46:32.950Z,2.55
2023-01-03T10:49:28.371Z,2.38
2023-01-03T10:52:33.627Z,2.40
2023-01-03T10:55:21.878Z,2.90
2023-01-03T10:58:01.407Z,2.85
2023-01-03T11:00:38.112Z,2.45
2023-01-03T11:03:16.873Z,2.20
2023-01-03T11:05:48.136Z,3.58
2023-01-03T11:08:24.172Z,2.50
2023-01-03T11:10:53.325Z,2.55
2023-01-03T11:13:40.578Z,2.85
2023-01-03T11:16:17.864Z,3.03
2023-01-03T11:19:00.625Z,3.10
2023-01-03T11:21:45.119Z,3.83
2023-01-03T11:24:15.282Z,4.78
2023-01-03T11:26:51.222Z,7.10
2023-01-03T11:29:21.370Z,6.20
2023-01-03T11:31:55.674Z,5.50
2023-01-03T11:35:20.746Z,4.05
2023-01-03T11:37:55.873Z,3.47
2023-01-03T11:40:29.358Z,4.70
2023-01-03T11:43:16.739Z,3.05
2023-01-03T11:46:13.304Z,3.50
2023-01-03T11:49:19.444Z,3.40
2023-01-03T11:51:59.158Z,4.75
2023-01-03T11:54:40.635Z,4.10
2023-01-03T11:57:36.821Z,6.45
2023-01-03T12:00:17.684Z,4.70
2023-01-03T12:03:09.402Z,4.05
2023-01-03T12:05:46.350Z,3.65
2023-01-03T12:08:38.585Z,4.25
2023-01-03T12:11:42.561Z,3.63
2023-01-03T12:14:27.523Z,2.72
2023-01-03T12:17:07.855Z,3.20
2023-01-03T12:19:53.710Z,2.90
2023-01-03T12:22:24.017Z,2.38
2023-01-03T12:25:18.388Z,2.65
2023-01-03T12:28:06.394Z,3.13
2023-01-03T12:30:54.389Z,3.08
2023-01-03T12:33:49.493Z,3.17
2023-01-03T12:36:47.575Z,3.40
2023-01-03T12:39:36.773Z,3.77
2023-01-03T12:42:44.091Z,3.05
2023-01-03T12:45:11.350Z,3.53
2023-01-03T12:47:54.397Z,3.75
2023-01-03T12:50:33.711Z,4.00
2023-01-03T12:53:31.326Z,7.57
2023-01-03T12:56:13.494Z,9.73
2023-01-03T12:58:59.986Z,5.18
2023-01-03T13:01:37.001Z,5.97
2023-01-03T13:04:32.851Z,2.80
2023-01-03T13:07:11.347Z,3.35
2023-01-03T13:09:46.472Z,4.65
2023-01-03T13:12:38.344Z,4.03
2023-01-03T13:15:36.175Z,4.32
2023-01-03T13:18:25.735Z,8.07
2023-01-03T13:21:02.563Z,6.35
2023-01-03T13:24:00.457Z,8.10
2023-01-03T13:26:32.534Z,5.10
2023-01-03T13:29:36.106Z,5.20
2023-01-03T13:32:25.543Z,5.40
2023-01-03T13:35:01.458Z,4.45
2023-01-03T13:37:53.797Z,5.78
2023-01-03T13:40:59.598Z,8.32
2023-01-03T13:43:21.824Z,5.75
2023-01-03T13:45:55.628Z,5.73
2023-01-03T13:48:30.819Z,5.47
2023-01-03T13:51:16.409Z,5.63
2023-01-03T13:54:00.769Z,5.25
2023-01-03T13:56:44.444Z,7.90
2023-01-03T13:59:14.945Z,6.63
2023-01-03T14:01:43.322Z,6.22
2023-01-03T14:05:06.789Z,6.32
2023-01-03T14:07:43.126Z,8.18
2023-01-03T14:10:44.113Z,15.95
2023-01-03T14:13:39.960Z,12.10
2023-01-03T14:16:23.986Z,12.82
2023-01-03T14:19:32.610Z,9.73
2023-01-03T14:22:34.850Z,12.70
2023-01-03T14:25:02.211Z,29.98
2023-01-03T14:27:37.688Z,37.38
2023-01-03T14:30:22.397Z,41.38
2023-01-03T14:32:50.150Z,41.30
2023-01-03T14:35:40.690Z,27.80
2023-01-03T14:38:35.761Z,20.17
2023-01-03T14:41:06.083Z,18.73
2023-01-03T14:43:39.044Z,21.05
2023-01-03T14:46:11.437Z,18.48
2023-01-03T14:48:46.404Z,19.42
2023-01-03T14:51:13.579Z,23.52
2023-01-03T14:53:42.003Z,28.17
2023-01-03T14:56:13.690Z,30.45
2023-01-03T14:58:47.543Z,71.63
2023-01-03T15:01:23.271Z,58.88
2023-01-03T15:03:52.570Z,39.78
2023-01-03T15:06:30.482Z,36.15
2023-01-03T15:09:12.526Z,34.80
2023-01-03T15:11:57.461Z,45.10
2023-01-03T15:14:29.087Z,45.03
2023-01-03T15:17:25.868Z,53.63
2023-01-03T15:19:57.380Z,67.47
2023-01-03T15:22:41.636Z,63.63
2023-01-03T15:25:34.373Z,59.60
2023-01-03T15:28:25.298Z,61.78
2023-01-03T15:31:03.264Z,69.55
2023-01-03T15:33:34.937Z,104.97
2023-01-03T15:36:19.138Z,100.25
2023-01-03T15:38:49.076Z,65.25
2023-01-03T15:42:12.363Z,71.05
2023-01-03T15:44:39.631Z,56.60
2023-01-03T15:47:09.242Z,40.83
2023-01-03T15:49:45.324Z,42.10
2023-01-03T15:52:14.644Z,44.08
2023-01-03T15:54:45.767Z,39.58
2023-01-03T15:57:28.723Z,36.00
2023-01-03T16:00:00.340Z,33.30
2023-01-03T16:02:30.138Z,29.42
2023-01-03T16:04:57.924Z,26.30
2023-01-03T16:07:26.385Z,27.20
2023-01-03T16:09:53.713Z,30.33
2023-01-03T16:12:31.096Z,29.15
2023-01-03T16:14:58.812Z,29.63
2023-01-03T16:17:30.919Z,29.30
2023-01-03T16:20:00.498Z,26.13
2023-01-03T16:22:35.498Z,25.65
2023-01-03T16:25:05.473Z,29.23
2023-01-03T16:27:41.209Z,27.08
2023-01-03T16:30:21.534Z,11.82
2023-01-03T16:32:50.336Z,14.95
2023-01-03T16:35:19.085Z,17.25
2023-01-03T16:37:47.512Z,15.85
2023-01-03T16:40:25.679Z,22.20
2023-01-03T16:42:52.793Z,27.70
2023-01-03T16:45:20.471Z,25.42
2023-01-03T16:47:49.142Z,29.42
2023-01-03T16:50:20.049Z,35.20
2023-01-03T16:52:52.679Z,30.58
2023-01-03T16:55:19.795Z,31.00
2023-01-03T16:57:53.910Z,31.15
2023-01-03T17:01:16.249Z,36.47
2023-01-03T17:03:56.935Z,54.05
2023-01-03T17:06:38.023Z,38.53
2023-01-03T17:09:33.381Z,47.60
2023-01-03T17:12:02.874Z,70.28
2023-01-03T17:14:35.052Z,59.50
2023-01-03T17:17:02.431Z,45.08
2023-01-03T17:22:20.739Z,79.22
2023-01-03T17:24:49.018Z,81.78
2023-01-03T17:27:21.849Z,86.20
2023-01-03T17:30:04.537Z,64.80
2023-01-03T17:32:57.023Z,50.53
2023-01-03T17:35:27.495Z,39.92
2023-01-03T17:38:24.520Z,41.25
2023-01-03T17:40:49.043Z,34.47
2023-01-03T17:43:23.334Z,32.30
2023-01-03T17:46:20.575Z,38.15
2023-01-03T17:49:06.362Z,44.70
2023-01-03T17:51:33.629Z,39.78
2023-01-03T17:54:01.828Z,41.45
2023-01-03T17:56:33.449Z,32.22
2023-01-03T17:59:00.649Z,35.10
2023-01-03T18:01:27.877Z,32.95
2023-01-03T18:03:55.731Z,32.60
2023-01-03T18:06:25.013Z,35.60
2023-01-03T18:08:53.020Z,42.85
2023-01-03T18:11:23.212Z,51.75
2023-01-03T18:13:50.285Z,54.92
2023-01-03T18:16:22.717Z,53.00
2023-01-03T18:18:50.130Z,51.13
2023-01-03T18:21:23.623Z,49.47
2023-01-03T18:24:03.402Z,50.60
2023-01-03T18:26:36.983Z,48.22
2023-01-03T18:29:06.345Z,51.63
2023-01-03T18:31:34.728Z,45.10
2023-01-03T18:34:04.774Z,51.40
2023-01-03T18:36:39.560Z,50.60
2023-01-03T18:39:12.589Z,43.70
2023-01-03T18:41:40.567Z,44.63
2023-01-03T18:44:21.155Z,39.22
2023-01-03T18:46:48.442Z,38.85
2023-01-03T18:49:15.982Z,39.83
2023-01-03T18:51:43.143Z,48.50
2023-01-03T18:54:16.531Z,60.67
2023-01-03T18:56:44.316Z,79.38
2023-01-03T18:59:21.501Z,76.55
2023-01-03T19:01:49.049Z,62.95
2023-01-03T19:04:16.580Z,69.68
2023-01-03T19:06:45.940Z,63.22
2023-01-03T19:09:21.619Z,68.70
2023-01-03T19:11:49.429Z,68.85
2023-01-03T19:14:16.565Z,55.65
2023-01-03T19:16:43.924Z,64.15
2023-01-03T19:19:11.657Z,54.42
2023-01-03T19:21:45.436Z,67.70
2023-01-03T19:24:58.470Z,81.75
2023-01-03T19:27:42.228Z,56.50
2023-01-03T19:30:18.216Z,52.13
2023-01-03T19:32:51.479Z,36.25
2023-01-03T19:35:23.450Z,26.60
2023-01-03T19:37:51.411Z,32.42
2023-01-03T19:40:21.848Z,40.15
2023-01-03T19:42:56.998Z,32.53
2023-01-03T19:45:37.261Z,28.05
2023-01-03T19:48:22.269Z,29.92
2023-01-03T19:50:51.504Z,28.70
2023-01-03T19:53:19.074Z,29.50
2023-01-03T19:55:47.733Z,24.98
2023-01-03T19:58:24.145Z,23.23
2023-01-03T20:00:52.184Z,25.58
2023-01-03T20:03:29.450Z,27.75
2023-01-03T20:05:58.186Z,33.88
2023-01-03T20:08:25.246Z,26.67
2023-01-03T20:10:54.312Z,25.70
2023-01-03T20:13:24.069Z,21.75
2023-01-03T20:15:57.586Z,21.13
2023-01-03T20:18:41.592Z,22.13
2023-01-03T20:21:23.337Z,21.05
2023-01-03T20:24:05.340Z,19.15
2023-01-03T20:26:34.934Z,18.75
2023-01-03T20:29:02.000Z,22.17
2023-01-03T20:31:29.087Z,23.88
2023-01-03T20:37:42.902Z,20.02
2023-01-03T20:40:22.235Z,18.88
2023-01-03T20:42:49.471Z,20.98
2023-01-03T20:45:17.489Z,23.27
2023-01-03T20:47:46.407Z,18.98
2023-01-03T20:50:25.726Z,19.23
2023-01-03T20:52:53.947Z,19.60
2023-01-03T20:55:25.238Z,19.48
2023-01-03T21:00:31.562Z,26.65
2023-01-03T21:02:59.141Z,35.67
2023-01-03T21:05:26.550Z,36.83
2023-01-03T21:08:12.508Z,35.15
2023-01-03T21:10:43.013Z,33.00
2023-01-03T21:13:16.259Z,37.95
2023-01-03T21:15:43.177Z,33.58
2023-01-03T21:18:11.200Z,29.05
2023-01-03T21:20:38.197Z,37.00
2023-01-03T21:23:05.236Z,42.75
2023-01-03T21:25:35.552Z,41.22
2023-01-03T21:28:03.319Z,43.17
2023-01-03T21:30:31.821Z,42.95
2023-01-03T21:32:59.686Z,46.00
2023-01-03T21:35:26.881Z,45.22
2023-01-03T21:37:54.929Z,51.20
2023-01-03T21:40:27.686Z,48.78
2023-01-03T21:43:04.468Z,49.13
2023-01-03T21:45:41.297Z,46.00
2023-01-03T21:48:14.911Z,47.75
2023-01-03T21:50:47.089Z,49.42
2023-01-03T21:53:23.147Z,50.92
2023-01-03T21:55:50.690Z,49.70
2023-01-03T21:58:24.366Z,56.10
2023-01-03T22:00:51.307Z,56.08
2023-01-03T22:03:37.344Z,55.00
2023-01-03T22:06:09.858Z,63.47
2023-01-03T22:08:37.772Z,39.70
2023-01-03T22:11:04.955Z,37.30
2023-01-03T22:13:32.815Z,40.58
2023-01-03T22:16:05.141Z,43.28
2023-01-03T22:18:32.372Z,45.97
2023-01-03T22:21:07.648Z,55.33
2023-01-03T22:23:35.825Z,53.85
2023-01-03T22:26:04.538Z,52.08
2023-01-03T22:28:41.115Z,55.03
2023-01-03T22:31:18.427Z,53.08
2023-01-03T22:33:49.935Z,56.22
2023-01-03T22:36:17.983Z,54.78
2023-01-03T22:38:44.967Z,59.28
2023-01-03T22:41:15.083Z,56.13
2023-01-03T22:43:58.363Z,60.88
2023-01-03T22:46:28.280Z,63.15
2023-01-03T22:48:55.500Z,57.78
2023-01-03T22:51:22.396Z,55.15
2023-01-03T22:53:49.556Z,51.50
2023-01-03T22:56:30.728Z,47.28
2023-01-03T22:58:58.484Z,48.53
2023-01-03T23:01:28.507Z,48.97
2023-01-03T23:04:01.686Z,48.55
2023-01-03T23:06:30.572Z,47.78
2023-01-03T23:12:46.663Z,45.78
2023-01-03T23:15:14.301Z,43.13
2023-01-03T23:17:59.137Z,44.35
2023-01-03T23:20:54.505Z,53.63
2023-01-03T23:23:23.665Z,57.65
2023-01-03T23:26:07.718Z,52.58
2023-01-03T23:28:36.130Z,35.03
2023-01-03T23:31:16.031Z,29.77
2023-01-03T23:33:43.062Z,31.27
2023-01-03T23:36:15.983Z,37.20
2023-01-03T23:39:11.716Z,30.13
2023-01-03T23:41:38.808Z,18.75
2023-01-03T23:44:10.372Z,17.98
2023-01-03T23:46:37.549Z,18.20
2023-01-03T23:49:04.733Z,18.45
2023-01-03T23:51:38.002Z,19.70
2023-01-03T23:54:16.397Z,19.95
2023-01-03T23:56:43.431Z,22.35
2023-01-03T23:59:10.397Z,22.90
